KVNY/VNY METAR and TAF weather

Enter ICAO airport designator
Station Type Date Time Source
KVNY METAR 2018/12/15 02:51 UTC NOAA

KVNY 150251Z 33003KT 10SM CLR 17/M03 A3012 RMK AO2 SLP196 T01671028 52003


Station Type Date Time Source
KVNY Decoded METAR 2018/12/15 02:51 UTC NOAA

VAN NUYS AIRPORT, CA, United States (KVNY) 34-13N 118-29W 245M
Dec 14, 2018 - 09:51 PM EST / 2018.12.15 0251 UTC
Wind: from the NNW (330 degrees) at 3 MPH (3 KT):0
Visibility: 10 mile(s):0
Sky conditions: clear
Temperature: 62.1 F (16.7 C)
Dew Point: 27.0 F (-2.8 C)
Relative Humidity: 26%
Pressure (altimeter): 30.12 in. Hg (1019 hPa)
Pressure tendency: 0.01 inches (0.3 hPa) higher than three hours ago
ob: KVNY 150251Z 33003KT 10SM CLR 17/M03 A3012 RMK AO2 SLP196 T01671028 52003
cycle: 3

Station Type Date Time Source
KVNY TAF 2018/12/14 18:51 UTC NOAA

TAF KVNY 141740Z 1418/1518 22004KT P6SM OVC200
FM142000 34006KT P6SM BKN200
FM150000 09006KT P6SM BKN200
FM150300 VRB03KT P6SM SCT250


Example: see airport list